createdAt,value
2022-12-27T00:01:52.633Z,7.00
2022-12-27T00:04:20.981Z,6.07
2022-12-27T00:06:49.250Z,6.30
2022-12-27T00:09:19.005Z,6.40
2022-12-27T00:11:47.332Z,5.93
2022-12-27T00:14:15.840Z,6.43
2022-12-27T00:16:44.185Z,6.40
2022-12-27T00:19:12.568Z,6.40
2022-12-27T00:21:40.990Z,6.80
2022-12-27T00:24:09.347Z,6.57
2022-12-27T00:26:39.486Z,7.13
2022-12-27T00:29:07.961Z,6.63
2022-12-27T00:31:36.412Z,6.40
2022-12-27T00:34:07.905Z,6.10
2022-12-27T00:36:36.683Z,6.10
2022-12-27T00:39:06.067Z,5.50
2022-12-27T00:41:34.595Z,6.00
2022-12-27T00:44:04.487Z,5.87
2022-12-27T00:46:32.762Z,5.80
2022-12-27T00:49:01.069Z,5.27
2022-12-27T00:51:29.369Z,4.93
2022-12-27T00:53:58.410Z,5.10
2022-12-27T00:56:29.330Z,5.00
2022-12-27T00:58:58.974Z,5.17
2022-12-27T01:01:30.926Z,5.03
2022-12-27T01:03:59.838Z,5.43
2022-12-27T01:06:30.126Z,5.17
2022-12-27T01:08:59.297Z,5.03
2022-12-27T01:11:28.935Z,5.57
2022-12-27T01:13:58.013Z,4.87
2022-12-27T01:16:29.190Z,4.50
2022-12-27T01:18:58.259Z,4.63
2022-12-27T01:21:27.348Z,5.47
2022-12-27T01:23:56.258Z,4.77
2022-12-27T01:26:25.273Z,4.80
2022-12-27T01:28:54.799Z,4.70
2022-12-27T01:31:28.878Z,5.07
2022-12-27T01:34:00.264Z,4.90
2022-12-27T01:36:30.538Z,4.80
2022-12-27T01:39:00.159Z,5.60
2022-12-27T01:41:47.905Z,5.97
2022-12-27T01:44:53.443Z,6.00
2022-12-27T01:47:32.706Z,5.63
2022-12-27T01:50:14.323Z,5.30
2022-12-27T01:52:47.115Z,5.30
2022-12-27T01:55:21.614Z,5.53
2022-12-27T01:57:52.379Z,5.13
2022-12-27T02:00:21.217Z,5.70
2022-12-27T02:02:50.360Z,4.90
2022-12-27T02:05:22.078Z,5.80
2022-12-27T02:08:05.273Z,5.17
2022-12-27T02:10:33.880Z,5.50
2022-12-27T02:13:04.109Z,5.00
2022-12-27T02:15:32.600Z,5.17
2022-12-27T02:18:01.621Z,4.47
2022-12-27T02:20:44.303Z,4.60
2022-12-27T02:23:59.192Z,4.13
2022-12-27T02:26:38.204Z,5.20
2022-12-27T02:29:32.255Z,4.17
2022-12-27T02:32:07.092Z,4.83
2022-12-27T02:34:44.384Z,4.37
2022-12-27T02:37:14.534Z,4.30
2022-12-27T02:39:46.791Z,4.10
2022-12-27T02:42:34.750Z,5.10
2022-12-27T02:45:25.743Z,5.00
2022-12-27T02:48:26.527Z,4.70
2022-12-27T02:51:21.192Z,4.77
2022-12-27T02:53:59.740Z,4.80
2022-12-27T02:56:54.344Z,4.60
2022-12-27T02:59:34.251Z,4.10
2022-12-27T03:02:31.833Z,4.47
2022-12-27T03:05:16.678Z,4.17
2022-12-27T03:07:52.658Z,4.27
2022-12-27T03:10:49.331Z,4.30
2022-12-27T03:13:42.465Z,4.23
2022-12-27T03:16:17.781Z,4.17
2022-12-27T03:19:04.401Z,3.90
2022-12-27T03:21:52.812Z,4.10
2022-12-27T03:24:42.662Z,4.33
2022-12-27T03:27:18.348Z,4.00
2022-12-27T03:30:13.054Z,4.10
2022-12-27T03:33:15.406Z,4.20
2022-12-27T03:36:11.122Z,4.33
2022-12-27T03:38:47.285Z,4.17
2022-12-27T03:41:36.867Z,4.10
2022-12-27T03:44:24.343Z,4.10
2022-12-27T03:46:55.633Z,3.90
2022-12-27T03:49:31.677Z,3.70
2022-12-27T03:52:07.929Z,3.73
2022-12-27T03:54:38.816Z,3.33
2022-12-27T03:57:09.371Z,3.20
2022-12-27T03:59:37.757Z,3.43
2022-12-27T04:02:07.233Z,3.33
2022-12-27T04:04:35.980Z,3.30
2022-12-27T04:07:05.906Z,3.40
2022-12-27T04:09:51.595Z,3.40
2022-12-27T04:12:37.222Z,3.03
2022-12-27T04:15:23.710Z,3.40
2022-12-27T04:18:08.979Z,3.43
2022-12-27T04:20:55.554Z,3.40
2022-12-27T04:23:42.891Z,3.30
2022-12-27T04:26:28.523Z,3.40
2022-12-27T04:29:14.268Z,3.30
2022-12-27T04:31:59.760Z,3.30
2022-12-27T04:34:43.760Z,3.30
2022-12-27T04:37:14.018Z,3.17
2022-12-27T04:40:05.410Z,3.00
2022-12-27T04:42:51.058Z,3.30
2022-12-27T04:45:37.178Z,3.33
2022-12-27T04:48:23.862Z,2.93
2022-12-27T04:51:10.151Z,3.30
2022-12-27T04:53:55.806Z,3.03
2022-12-27T04:56:25.447Z,2.77
2022-12-27T04:59:11.010Z,3.00
2022-12-27T05:01:56.974Z,3.10
2022-12-27T05:04:25.537Z,3.10
2022-12-27T05:06:54.462Z,3.07
2022-12-27T05:09:40.171Z,3.10
2022-12-27T05:12:29.366Z,2.83
2022-12-27T05:14:57.644Z,3.43
2022-12-27T05:17:25.920Z,3.40
2022-12-27T05:19:54.205Z,3.37
2022-12-27T05:22:40.074Z,3.20
2022-12-27T05:25:27.505Z,3.07
2022-12-27T05:27:57.135Z,3.90
2022-12-27T05:30:25.402Z,4.50
2022-12-27T05:32:56.079Z,4.40
2022-12-27T05:35:24.930Z,4.10
2022-12-27T05:37:55.204Z,3.93
2022-12-27T05:40:24.408Z,9.67
2022-12-27T05:42:52.732Z,12.87
2022-12-27T05:45:22.531Z,19.10
2022-12-27T05:47:50.796Z,20.87
2022-12-27T05:50:19.465Z,19.63
2022-12-27T05:52:47.978Z,15.23
2022-12-27T05:55:16.558Z,11.33
2022-12-27T05:57:44.914Z,8.27
2022-12-27T06:00:14.193Z,6.10
2022-12-27T06:02:44.004Z,5.00
2022-12-27T06:05:12.731Z,3.97
2022-12-27T06:07:41.386Z,4.53
2022-12-27T06:10:10.608Z,4.50
2022-12-27T06:12:38.942Z,4.80
2022-12-27T06:15:08.368Z,4.20
2022-12-27T06:17:36.661Z,3.80
2022-12-27T06:20:07.647Z,3.43
2022-12-27T06:22:35.980Z,3.67
2022-12-27T06:25:06.401Z,3.50
2022-12-27T06:27:36.404Z,3.43
2022-12-27T06:30:06.073Z,3.47
2022-12-27T06:32:34.356Z,3.37
2022-12-27T06:35:02.630Z,3.30
2022-12-27T06:37:33.255Z,3.43
2022-12-27T06:40:01.564Z,3.20
2022-12-27T06:42:31.328Z,3.50
2022-12-27T06:44:59.641Z,3.80
2022-12-27T06:47:27.893Z,3.63
2022-12-27T06:49:56.354Z,4.13
2022-12-27T06:52:26.498Z,4.03
2022-12-27T06:54:56.287Z,4.20
2022-12-27T06:57:24.724Z,4.67
2022-12-27T06:59:54.227Z,4.47
2022-12-27T07:02:22.915Z,4.23
2022-12-27T07:04:51.331Z,3.93
2022-12-27T07:07:19.651Z,3.70
2022-12-27T07:09:47.941Z,3.77
2022-12-27T07:12:17.628Z,4.10
2022-12-27T07:14:45.952Z,3.30
2022-12-27T07:17:14.191Z,3.57
2022-12-27T07:19:42.472Z,3.30
2022-12-27T07:22:10.676Z,3.17
2022-12-27T07:24:39.011Z,3.10
2022-12-27T07:27:07.272Z,3.20
2022-12-27T07:29:41.914Z,3.30
2022-12-27T07:32:13.715Z,3.23
2022-12-27T07:34:42.136Z,3.50
2022-12-27T07:37:10.544Z,3.80
2022-12-27T07:39:38.821Z,4.00
2022-12-27T07:42:08.698Z,4.20
2022-12-27T07:44:38.654Z,3.93
2022-12-27T07:47:07.249Z,4.40
2022-12-27T07:49:35.605Z,5.43
2022-12-27T07:52:03.904Z,6.40
2022-12-27T07:54:32.167Z,6.03
2022-12-27T07:57:00.507Z,6.33
2022-12-27T07:59:28.850Z,6.90
2022-12-27T08:02:07.467Z,8.67
2022-12-27T08:04:38.328Z,9.20
2022-12-27T08:07:10.290Z,8.37
2022-12-27T08:09:40.973Z,9.87
2022-12-27T08:12:10.125Z,11.57
2022-12-27T08:14:38.580Z,11.40
2022-12-27T08:17:13.346Z,8.37
2022-12-27T08:19:41.589Z,7.17
2022-12-27T08:22:10.919Z,5.97
2022-12-27T08:24:40.996Z,5.90
2022-12-27T08:27:09.670Z,5.80
2022-12-27T08:29:38.079Z,5.13
2022-12-27T08:32:07.882Z,5.73
2022-12-27T08:34:36.168Z,5.47
2022-12-27T08:37:04.415Z,5.20
2022-12-27T08:39:32.728Z,4.70
2022-12-27T08:42:01.482Z,4.80
2022-12-27T08:44:30.156Z,4.80
2022-12-27T08:46:59.612Z,4.73
2022-12-27T08:49:29.290Z,4.93
2022-12-27T08:51:57.560Z,5.50
2022-12-27T08:54:26.695Z,5.60
2022-12-27T08:56:55.025Z,5.97
2022-12-27T08:59:23.354Z,6.37
2022-12-27T09:01:51.757Z,6.00
2022-12-27T09:04:20.164Z,5.87
2022-12-27T09:06:50.124Z,6.07
2022-12-27T09:09:18.485Z,6.20
2022-12-27T09:11:46.851Z,6.30
2022-12-27T09:14:15.079Z,7.47
2022-12-27T09:16:43.413Z,7.93
2022-12-27T09:19:11.696Z,7.60
2022-12-27T09:21:42.340Z,7.43
2022-12-27T09:24:13.597Z,7.77
2022-12-27T09:26:41.954Z,9.27
2022-12-27T09:29:10.216Z,10.77
2022-12-27T09:31:38.405Z,11.30
2022-12-27T09:34:06.690Z,11.80
2022-12-27T09:36:35.069Z,10.70
2022-12-27T09:39:03.304Z,9.53
2022-12-27T09:42:45.986Z,11.13
2022-12-27T09:44:41.705Z,13.60
2022-12-27T09:47:15.557Z,11.00
2022-12-27T09:49:46.674Z,8.17
2022-12-27T09:52:19.281Z,7.47
2022-12-27T09:55:04.630Z,5.83
2022-12-27T09:57:39.911Z,4.80
2022-12-27T10:00:16.388Z,4.60
2022-12-27T10:02:45.745Z,3.90
2022-12-27T10:05:23.138Z,3.50
2022-12-27T10:08:07.093Z,3.53
2022-12-27T10:10:45.643Z,3.23
2022-12-27T10:13:30.285Z,3.40
2022-12-27T10:16:10.680Z,2.92
2022-12-27T10:18:50.276Z,3.03
2022-12-27T10:21:24.816Z,2.72
2022-12-27T10:23:57.324Z,2.47
2022-12-27T10:26:25.921Z,2.70
2022-12-27T10:29:00.185Z,2.60
2022-12-27T10:31:29.424Z,2.70
2022-12-27T10:33:58.637Z,2.60
2022-12-27T10:36:29.563Z,2.90
2022-12-27T10:38:58.078Z,2.97
2022-12-27T10:41:37.267Z,2.75
2022-12-27T10:44:12.834Z,2.70
2022-12-27T10:46:44.646Z,2.58
2022-12-27T10:49:24.461Z,2.58
2022-12-27T10:51:54.117Z,2.88
2022-12-27T10:54:25.553Z,2.70
2022-12-27T10:56:55.230Z,3.03
2022-12-27T10:59:26.977Z,3.72
2022-12-27T11:02:18.833Z,3.47
2022-12-27T11:05:00.922Z,2.97
2022-12-27T11:07:33.771Z,3.20
2022-12-27T11:10:18.936Z,2.80
2022-12-27T11:13:01.889Z,2.75
2022-12-27T11:15:34.758Z,3.00
2022-12-27T11:18:10.173Z,3.13
2022-12-27T11:20:41.232Z,3.15
2022-12-27T11:23:15.815Z,3.08
2022-12-27T11:25:54.540Z,3.97
2022-12-27T11:28:34.454Z,3.50
2022-12-27T11:31:06.624Z,3.67
2022-12-27T11:33:39.993Z,3.47
2022-12-27T11:36:10.445Z,5.25
2022-12-27T11:38:40.885Z,9.43
2022-12-27T11:41:14.906Z,11.57
2022-12-27T11:43:50.562Z,10.15
2022-12-27T11:46:34.839Z,9.37
2022-12-27T11:49:05.397Z,9.00
2022-12-27T11:51:54.838Z,6.43
2022-12-27T11:54:38.511Z,5.07
2022-12-27T11:57:21.149Z,4.63
2022-12-27T11:59:57.925Z,4.20
2022-12-27T12:02:45.276Z,3.43
2022-12-27T12:05:44.051Z,3.40
2022-12-27T12:09:00.111Z,3.57
2022-12-27T12:11:43.239Z,3.77
2022-12-27T12:14:37.620Z,4.33
2022-12-27T12:17:31.092Z,3.70
2022-12-27T12:20:20.127Z,4.00
2022-12-27T12:23:06.652Z,3.47
2022-12-27T12:25:53.777Z,3.13
2022-12-27T12:28:59.192Z,3.20
2022-12-27T12:31:54.031Z,3.20
2022-12-27T12:34:43.987Z,3.70
2022-12-27T12:37:25.982Z,3.42
2022-12-27T12:40:28.819Z,3.35
2022-12-27T12:43:07.455Z,3.60
2022-12-27T12:46:02.141Z,5.07
2022-12-27T12:48:44.055Z,3.40
2022-12-27T12:51:39.059Z,3.15
2022-12-27T12:54:23.717Z,3.00
2022-12-27T12:57:08.288Z,2.65
2022-12-27T13:00:00.546Z,2.97
2022-12-27T13:03:02.172Z,3.27
2022-12-27T13:05:39.215Z,2.88
2022-12-27T13:08:16.326Z,3.07
2022-12-27T13:11:24.957Z,3.03
2022-12-27T13:14:13.470Z,2.97
2022-12-27T13:16:51.747Z,2.87
2022-12-27T13:19:40.253Z,3.40
2022-12-27T13:22:17.333Z,2.78
2022-12-27T13:25:00.190Z,4.00
2022-12-27T13:27:35.982Z,3.67
2022-12-27T13:30:16.296Z,3.10
2022-12-27T13:33:07.061Z,2.97
2022-12-27T13:35:48.851Z,7.18
2022-12-27T13:38:31.387Z,8.65
2022-12-27T13:41:30.701Z,7.80
2022-12-27T13:44:38.916Z,3.15
2022-12-27T13:47:35.461Z,3.10
2022-12-27T13:50:22.141Z,2.70
2022-12-27T13:53:04.844Z,2.85
2022-12-27T13:55:40.057Z,3.00
2022-12-27T13:58:35.721Z,3.60
2022-12-27T14:01:22.248Z,2.95
2022-12-27T14:04:20.696Z,3.60
2022-12-27T14:07:04.233Z,2.70
2022-12-27T14:09:59.179Z,2.72
2022-12-27T14:12:59.408Z,2.53
2022-12-27T14:15:38.598Z,2.85
2022-12-27T14:18:22.075Z,2.55
2022-12-27T14:21:07.523Z,2.97
2022-12-27T14:23:53.492Z,2.58
2022-12-27T14:27:08.863Z,2.72
2022-12-27T14:30:13.613Z,3.22
2022-12-27T14:33:31.143Z,3.13
2022-12-27T14:36:50.366Z,2.75
2022-12-27T14:39:50.460Z,3.00
2022-12-27T14:42:50.728Z,3.13
2022-12-27T14:45:51.033Z,3.10
2022-12-27T14:48:49.491Z,3.30
2022-12-27T14:52:03.498Z,2.85
2022-12-27T14:55:07.794Z,2.80
2022-12-27T14:57:43.666Z,3.28
2022-12-27T15:00:18.111Z,3.05
2022-12-27T15:03:15.142Z,2.80
2022-12-27T15:05:58.688Z,3.20
2022-12-27T15:08:54.080Z,3.53
2022-12-27T15:11:43.898Z,3.10
2022-12-27T15:14:26.573Z,3.08
2022-12-27T15:17:08.582Z,3.20
2022-12-27T15:20:09.675Z,9.50
2022-12-27T15:22:50.288Z,8.15
2022-12-27T15:25:28.095Z,6.43
2022-12-27T15:28:07.848Z,5.53
2022-12-27T15:30:52.583Z,4.13
2022-12-27T15:33:31.037Z,4.30
2022-12-27T15:36:04.190Z,3.80
2022-12-27T15:38:53.032Z,3.73
2022-12-27T15:41:34.841Z,3.50
2022-12-27T15:44:39.245Z,3.70
2022-12-27T15:47:42.145Z,4.13
2022-12-27T15:50:35.697Z,6.18
2022-12-27T15:53:17.912Z,10.13
2022-12-27T15:56:14.822Z,15.43
2022-12-27T15:58:43.820Z,18.77
2022-12-27T16:01:29.726Z,16.40
2022-12-27T16:03:59.814Z,14.70
2022-12-27T16:06:52.657Z,12.63
2022-12-27T16:09:36.926Z,12.57
2022-12-27T16:12:10.600Z,14.32
2022-12-27T16:14:40.903Z,13.57
2022-12-27T16:17:32.764Z,14.00
2022-12-27T16:20:19.943Z,21.50
2022-12-27T16:22:53.862Z,21.77
2022-12-27T16:25:31.831Z,17.77
2022-12-27T16:28:05.174Z,16.00
2022-12-27T16:30:55.369Z,17.70
2022-12-27T16:33:37.592Z,25.27
2022-12-27T16:36:14.945Z,25.10
2022-12-27T16:38:49.194Z,22.67
2022-12-27T16:41:29.368Z,20.47
2022-12-27T16:44:15.580Z,17.57
2022-12-27T16:47:10.973Z,14.53
2022-12-27T16:50:06.866Z,14.27
2022-12-27T16:52:59.355Z,12.63
2022-12-27T16:56:09.331Z,16.77
2022-12-27T16:58:38.803Z,21.27
2022-12-27T17:01:08.443Z,23.27
2022-12-27T17:03:48.639Z,20.10
2022-12-27T17:06:56.369Z,19.30
2022-12-27T17:09:46.102Z,16.27
2022-12-27T17:12:24.814Z,15.83
2022-12-27T17:15:01.012Z,16.37
2022-12-27T17:17:30.024Z,17.63
2022-12-27T17:20:04.641Z,16.67
2022-12-27T17:22:35.266Z,17.57
2022-12-27T17:25:07.087Z,16.03
2022-12-27T17:27:57.953Z,16.40
2022-12-27T17:30:30.987Z,21.47
2022-12-27T17:33:32.069Z,20.87
2022-12-27T17:36:36.294Z,18.90
2022-12-27T17:39:20.167Z,15.57
2022-12-27T17:42:16.276Z,13.63
2022-12-27T17:45:03.309Z,14.27
2022-12-27T17:47:44.147Z,16.37
2022-12-27T17:50:17.842Z,17.93
2022-12-27T17:53:21.560Z,16.63
2022-12-27T17:56:19.155Z,13.60
2022-12-27T17:58:48.879Z,12.40
2022-12-27T18:01:17.442Z,13.20
2022-12-27T18:03:48.481Z,14.17
2022-12-27T18:06:20.918Z,13.83
2022-12-27T18:08:50.419Z,13.70
2022-12-27T18:11:23.429Z,12.97
2022-12-27T18:13:59.061Z,16.13
2022-12-27T18:16:34.994Z,17.50
2022-12-27T18:19:03.427Z,16.27
2022-12-27T18:21:32.208Z,15.40
2022-12-27T18:24:00.527Z,13.23
2022-12-27T18:26:41.056Z,12.20
2022-12-27T18:29:13.158Z,11.27
2022-12-27T18:31:48.988Z,11.17
2022-12-27T18:34:25.505Z,10.80
2022-12-27T18:37:00.486Z,11.97
2022-12-27T18:39:31.233Z,13.73
2022-12-27T18:42:01.415Z,15.43
2022-12-27T18:44:33.764Z,16.60
2022-12-27T18:47:04.461Z,15.43
2022-12-27T18:49:35.925Z,18.03
2022-12-27T18:52:13.688Z,23.60
2022-12-27T18:54:42.917Z,21.93
2022-12-27T18:57:32.016Z,18.43
2022-12-27T19:00:16.418Z,16.33
2022-12-27T19:02:45.225Z,13.87
2022-12-27T19:05:31.038Z,13.43
2022-12-27T19:08:10.248Z,16.63
2022-12-27T19:10:41.413Z,20.17
2022-12-27T19:13:22.218Z,21.70
2022-12-27T19:15:53.309Z,18.27
2022-12-27T19:18:25.036Z,15.47
2022-12-27T19:20:57.221Z,15.13
2022-12-27T19:23:32.641Z,14.13
2022-12-27T19:26:04.653Z,12.43
2022-12-27T19:28:34.679Z,12.43
2022-12-27T19:31:18.464Z,14.60
2022-12-27T19:33:51.347Z,15.50
2022-12-27T19:36:27.782Z,13.87
2022-12-27T19:38:57.357Z,12.07
2022-12-27T19:41:26.205Z,10.10
2022-12-27T19:43:55.619Z,9.87
2022-12-27T19:46:30.944Z,13.30
2022-12-27T19:51:47.924Z,10.60
2022-12-27T19:54:18.616Z,9.93
2022-12-27T19:56:47.028Z,11.20
2022-12-27T19:59:17.814Z,10.87
2022-12-27T20:01:47.677Z,10.53
2022-12-27T20:04:17.272Z,9.47
2022-12-27T20:06:47.873Z,12.00
2022-12-27T20:09:19.413Z,12.73
2022-12-27T20:11:49.605Z,12.10
2022-12-27T20:14:18.259Z,10.27
2022-12-27T20:16:48.549Z,8.67
2022-12-27T20:19:18.243Z,8.70
2022-12-27T20:21:46.825Z,9.13
2022-12-27T20:24:15.475Z,9.00
2022-12-27T20:26:44.544Z,9.77
2022-12-27T20:29:15.198Z,8.70
2022-12-27T20:31:48.608Z,9.80
2022-12-27T20:34:18.371Z,11.07
2022-12-27T20:36:46.646Z,9.13
2022-12-27T20:39:14.951Z,7.87
2022-12-27T20:41:43.225Z,7.63
2022-12-27T20:44:14.026Z,8.07
2022-12-27T20:46:42.688Z,8.57
2022-12-27T20:49:10.981Z,10.90
2022-12-27T20:51:41.679Z,11.03
2022-12-27T20:54:13.337Z,11.13
2022-12-27T20:56:41.684Z,9.80
2022-12-27T20:59:09.924Z,7.40
2022-12-27T21:01:38.289Z,7.13
2022-12-27T21:04:07.220Z,8.40
2022-12-27T21:06:35.490Z,9.13
2022-12-27T21:09:05.596Z,9.07
2022-12-27T21:11:34.146Z,9.10
2022-12-27T21:14:03.309Z,9.50
2022-12-27T21:16:33.822Z,8.13
2022-12-27T21:19:05.018Z,7.27
2022-12-27T21:21:34.992Z,8.37
2022-12-27T21:24:05.613Z,8.10
2022-12-27T21:26:36.111Z,6.93
2022-12-27T21:29:06.270Z,7.73
2022-12-27T21:31:34.664Z,6.80
2022-12-27T21:34:03.023Z,7.30
2022-12-27T21:36:32.561Z,8.43
2022-12-27T21:39:01.992Z,8.40
2022-12-27T21:41:33.522Z,6.80
2022-12-27T21:44:02.160Z,5.93
2022-12-27T21:46:32.333Z,4.40
2022-12-27T21:49:02.386Z,4.00
2022-12-27T21:51:32.365Z,3.93
2022-12-27T21:54:01.166Z,4.30
2022-12-27T21:56:31.457Z,4.87
2022-12-27T21:59:01.960Z,5.60
2022-12-27T22:01:51.416Z,5.03
2022-12-27T22:04:19.755Z,5.20
2022-12-27T22:06:48.329Z,9.17
2022-12-27T22:09:19.231Z,8.57
2022-12-27T22:11:49.727Z,8.23
2022-12-27T22:14:23.302Z,7.97
2022-12-27T22:16:53.334Z,6.67
2022-12-27T22:19:21.693Z,5.67
2022-12-27T22:21:50.056Z,4.50
2022-12-27T22:24:19.837Z,3.50
2022-12-27T22:26:50.416Z,3.40
2022-12-27T22:29:19.071Z,3.53
2022-12-27T22:31:47.385Z,3.43
2022-12-27T22:34:15.715Z,3.47
2022-12-27T22:36:44.019Z,3.40
2022-12-27T22:39:12.341Z,3.23
2022-12-27T22:41:40.859Z,3.03
2022-12-27T22:44:13.939Z,3.17
2022-12-27T22:47:25.237Z,3.17
2022-12-27T22:49:31.620Z,3.30
2022-12-27T22:51:59.890Z,3.07
2022-12-27T22:55:04.691Z,3.37
2022-12-27T22:57:16.671Z,3.80
2022-12-27T22:59:46.438Z,3.63
2022-12-27T23:02:14.900Z,3.20
2022-12-27T23:04:43.286Z,3.20
2022-12-27T23:07:11.610Z,2.87
2022-12-27T23:09:43.363Z,3.30
2022-12-27T23:12:12.244Z,3.13
2022-12-27T23:14:40.570Z,2.80
2022-12-27T23:17:10.254Z,3.20
2022-12-27T23:19:38.552Z,3.30
2022-12-27T23:22:07.000Z,2.90
2022-12-27T23:24:35.247Z,3.27
2022-12-27T23:27:03.860Z,3.03
2022-12-27T23:29:32.201Z,3.20
2022-12-27T23:32:00.487Z,3.17
2022-12-27T23:34:30.237Z,3.50
2022-12-27T23:36:58.958Z,3.23
2022-12-27T23:39:27.595Z,3.50
2022-12-27T23:41:56.096Z,3.13
2022-12-27T23:44:33.160Z,2.90
2022-12-27T23:47:03.560Z,3.13
2022-12-27T23:49:33.390Z,3.60
2022-12-27T23:52:01.740Z,3.20
2022-12-27T23:54:30.103Z,3.03
2022-12-27T23:56:58.367Z,3.70
2022-12-27T23:59:46.652Z,3.80
